CheckWX is a tool to help pilots better visualize weather data.  It is not intended as a substitute for an official pre-flight weather briefing.

02:20:44 UTC

KSRC METAR
Searcy Municipal Airport
Searcy, Arkansas, USA
Current

25 mins ago

KSRC 130156Z AUTO 00000KT 10SM CLR 02/00 A3017 RMK AO2 SLP220 T00220000 FZRANO
Observed
Dec-13 @ 01:56 UTC
Visibility
10 SM
Flight Rules
VFR
Cloud Levels
  • Clear skies
Temperature
C / 36°F
Dewpoint
C / 32°F
Humidity
87%
Altimeter
30.17" Hg
Pressure
1021.72 hPa
Previous

1 hour ago

KSRC 130056Z AUTO 00000KT 10SM CLR 03/00 A3018 RMK AO2 SLP225 T00280000
Observed
Dec-13 @ 00:56 UTC
Visibility
10 SM
Flight Rules
VFR
Cloud Levels
  • Clear skies
Temperature
C / 37°F
Dewpoint
C / 32°F
Humidity
81%
Altimeter
30.18" Hg
Pressure
1022.02 hPa
Previous

2 hours ago

KSRC 122356Z AUTO 15004KT 10SM CLR 06/00 A3017 RMK AO2 SLP220 T00560000 10128 20056 57012
Observed
Dec-12 @ 23:56 UTC
Wind
  • 150° at 4 KTS
Visibility
10 SM
Flight Rules
VFR
Cloud Levels
  • Clear skies
Temperature
C / 43°F
Dewpoint
C / 32°F
Humidity
66%
Altimeter
30.17" Hg
Pressure
1021.72 hPa